Lahaina, HI

9:07 AM HST on August 23, 2014 (GMT -1000)
Molokai | Change Station
CLOSE
Current Station
Airport
Location: Molokai,
Elevation: 449 ft
Nearby Weather Stations

Elev 449 ft 21.15 °N, 157.10 °W | Updated 13 minutes ago

Partly Cloudy
Partly Cloudy
81 °F
Feels Like 84 °F
N
15
Wind Variable Wind from ENE
Gusts 21 mph

Today
High -- | Low -- °F
--% Chance of Precip.
Yesterday
High -- | Low -- °F
Precip. -- in
6:08 AM 6:50 PM
Waning Crescent, 3% visible
Pressure 30.00 in
Visibility 10.0 miles
Clouds Few 3000 ft
Heat Index 84 °F
Dew Point 69 °F
Humidity 67%
Rainfall 0.03 in
Snow Depth Not available.
UV 4 out of 12
Pollen Not available.
Air Quality Not available.
Flu Activity Not available.
METAR PHMK 231854Z 06013G18KT 10SM FEW030 27/21 A3000 RMK AO2 SLP158 T02720206

More Conditions Fewer Conditions

Pressure 30.00 in
Visibility 10.0 miles
Clouds Few 3000 ft
Heat Index 84 °F
Dew Point 69 °F
Humidity 67%
Rainfall 0.03 in
Snow Depth Not available.
UV 4 out of 12
Pollen Not available.
Air Quality Not available.
Flu Activity Not available.
METAR PHMK 231854Z 06013G18KT 10SM FEW030 27/21 A3000 RMK AO2 SLP158 T02720206

More Conditions Fewer Conditions

10-Day Weather Forecast

Almanac

Astronomy

Aug. 23, 2014 Rise Set
Actual Time 6:08 AM HST 6:50 PM HST
Civil Twilight 5:45 AM HST 7:12 PM HST
Nautical Twilight 5:18 AM HST 7:39 PM HST
Astronomical Twilight 4:51 AM HST 8:06 PM HST
Moon 4:38 AM HST 5:40 PM HST
Length of Visible Light 13h 27m
Length of Day
12h 41m
Tomorrow will be 1m 6s shorter.
Waning Crescent, 3% of the Moon is Illuminated
Today
Waning Crescent
Aug 25
New
Sep 2
First Quarter
Sep 8
Full
Sep 15
Last Quarter

Today's Extremes

State Highs State Lows

Community

WunderPhotos

Upload Photos

1,746,580 photos uploaded!

WunderBlogs® & News

Nearby

Snow Depth

Station Depth Elevation
No new snow has been reported.

Earthquake Activity

City Distance Mag. Time & Date
No recent earthquake activity has been reported nearby.
Minimum magnitude displayed is 2.5.

Coastal Water Temperatures

Place Temperature
No Stations Reporting

Nearby Weather Stations